sensor_id;sensor_type;location;lat;lon;timestamp;P1;durP1;ratioP1;P2;durP2;ratioP2
577;SDS011;275;48.492;9.214;2022-07-10T00:00:27;5.07;;;4.57;;
577;SDS011;275;48.492;9.214;2022-07-10T00:02:55;4.37;;;3.93;;
577;SDS011;275;48.492;9.214;2022-07-10T00:05:23;7.10;;;4.70;;
577;SDS011;275;48.492;9.214;2022-07-10T00:07:52;4.77;;;4.27;;
577;SDS011;275;48.492;9.214;2022-07-10T00:10:19;6.10;;;4.47;;
577;SDS011;275;48.492;9.214;2022-07-10T00:12:46;5.10;;;4.60;;
577;SDS011;275;48.492;9.214;2022-07-10T00:15:14;5.33;;;4.83;;
577;SDS011;275;48.492;9.214;2022-07-10T00:17:42;4.90;;;4.40;;
577;SDS011;275;48.492;9.214;2022-07-10T00:20:09;6.90;;;5.10;;
577;SDS011;275;48.492;9.214;2022-07-10T00:22:38;5.40;;;4.83;;
577;SDS011;275;48.492;9.214;2022-07-10T00:25:07;5.40;;;4.87;;
577;SDS011;275;48.492;9.214;2022-07-10T00:27:36;6.23;;;5.60;;
577;SDS011;275;48.492;9.214;2022-07-10T00:30:04;5.90;;;5.23;;
577;SDS011;275;48.492;9.214;2022-07-10T00:32:31;5.60;;;5.00;;
577;SDS011;275;48.492;9.214;2022-07-10T00:34:58;7.60;;;4.90;;
577;SDS011;275;48.492;9.214;2022-07-10T00:37:27;6.63;;;5.20;;
577;SDS011;275;48.492;9.214;2022-07-10T00:39:53;5.30;;;4.80;;
577;SDS011;275;48.492;9.214;2022-07-10T00:42:22;5.47;;;4.80;;
577;SDS011;275;48.492;9.214;2022-07-10T00:44:49;4.93;;;4.43;;
577;SDS011;275;48.492;9.214;2022-07-10T00:47:15;6.07;;;5.40;;
577;SDS011;275;48.492;9.214;2022-07-10T00:49:44;6.20;;;5.30;;
577;SDS011;275;48.492;9.214;2022-07-10T00:52:13;5.70;;;4.97;;
577;SDS011;275;48.492;9.214;2022-07-10T00:54:42;5.90;;;5.40;;
577;SDS011;275;48.492;9.214;2022-07-10T00:57:10;6.20;;;5.60;;
577;SDS011;275;48.492;9.214;2022-07-10T00:59:41;6.70;;;5.33;;
577;SDS011;275;48.492;9.214;2022-07-10T01:02:09;5.23;;;4.73;;
577;SDS011;275;48.492;9.214;2022-07-10T01:04:37;5.97;;;5.47;;
577;SDS011;275;48.492;9.214;2022-07-10T01:07:03;8.33;;;5.97;;
577;SDS011;275;48.492;9.214;2022-07-10T01:09:31;5.37;;;4.87;;
577;SDS011;275;48.492;9.214;2022-07-10T01:11:59;6.23;;;5.07;;
577;SDS011;275;48.492;9.214;2022-07-10T01:14:27;5.37;;;4.83;;
577;SDS011;275;48.492;9.214;2022-07-10T01:16:56;6.00;;;5.50;;
577;SDS011;275;48.492;9.214;2022-07-10T01:19:23;6.60;;;5.73;;
577;SDS011;275;48.492;9.214;2022-07-10T01:21:52;6.07;;;5.10;;
577;SDS011;275;48.492;9.214;2022-07-10T01:24:19;6.97;;;6.00;;
577;SDS011;275;48.492;9.214;2022-07-10T01:26:46;5.63;;;5.13;;
577;SDS011;275;48.492;9.214;2022-07-10T01:29:13;7.50;;;5.80;;
577;SDS011;275;48.492;9.214;2022-07-10T01:31:40;6.10;;;5.50;;
577;SDS011;275;48.492;9.214;2022-07-10T01:34:08;6.80;;;6.10;;
577;SDS011;275;48.492;9.214;2022-07-10T01:36:35;6.80;;;6.10;;
577;SDS011;275;48.492;9.214;2022-07-10T01:39:04;6.50;;;5.90;;
577;SDS011;275;48.492;9.214;2022-07-10T01:41:31;6.80;;;6.20;;
577;SDS011;275;48.492;9.214;2022-07-10T01:43:59;6.30;;;5.47;;
577;SDS011;275;48.492;9.214;2022-07-10T01:46:26;6.20;;;5.60;;
577;SDS011;275;48.492;9.214;2022-07-10T01:48:53;6.17;;;5.60;;
577;SDS011;275;48.492;9.214;2022-07-10T01:51:21;5.43;;;4.93;;
577;SDS011;275;48.492;9.214;2022-07-10T01:53:48;7.83;;;6.03;;
577;SDS011;275;48.492;9.214;2022-07-10T01:56:16;6.60;;;5.90;;
577;SDS011;275;48.492;9.214;2022-07-10T01:58:43;6.07;;;5.13;;
577;SDS011;275;48.492;9.214;2022-07-10T02:01:10;5.73;;;5.23;;
577;SDS011;275;48.492;9.214;2022-07-10T02:03:37;8.67;;;6.27;;
577;SDS011;275;48.492;9.214;2022-07-10T02:06:22;6.13;;;5.53;;
577;SDS011;275;48.492;9.214;2022-07-10T02:08:49;6.20;;;5.70;;
577;SDS011;275;48.492;9.214;2022-07-10T02:11:17;7.00;;;5.60;;
577;SDS011;275;48.492;9.214;2022-07-10T02:13:44;6.60;;;5.77;;
577;SDS011;275;48.492;9.214;2022-07-10T02:16:11;6.73;;;6.03;;
577;SDS011;275;48.492;9.214;2022-07-10T02:18:38;6.57;;;5.97;;
577;SDS011;275;48.492;9.214;2022-07-10T02:21:05;6.00;;;5.30;;
577;SDS011;275;48.492;9.214;2022-07-10T02:23:32;6.67;;;5.97;;
577;SDS011;275;48.492;9.214;2022-07-10T02:25:59;6.83;;;6.03;;
577;SDS011;275;48.492;9.214;2022-07-10T02:28:28;6.40;;;5.80;;
577;SDS011;275;48.492;9.214;2022-07-10T02:30:55;7.80;;;7.10;;
577;SDS011;275;48.492;9.214;2022-07-10T02:33:22;6.50;;;5.90;;
577;SDS011;275;48.492;9.214;2022-07-10T02:35:49;6.33;;;5.83;;
577;SDS011;275;48.492;9.214;2022-07-10T02:38:16;6.77;;;6.17;;
577;SDS011;275;48.492;9.214;2022-07-10T02:40:43;6.80;;;6.10;;
577;SDS011;275;48.492;9.214;2022-07-10T02:43:09;6.73;;;6.13;;
577;SDS011;275;48.492;9.214;2022-07-10T02:45:38;7.20;;;6.50;;
577;SDS011;275;48.492;9.214;2022-07-10T02:48:05;6.10;;;5.60;;
577;SDS011;275;48.492;9.214;2022-07-10T02:50:31;7.00;;;6.40;;
577;SDS011;275;48.492;9.214;2022-07-10T02:52:58;6.03;;;5.53;;
577;SDS011;275;48.492;9.214;2022-07-10T02:55:26;6.30;;;5.70;;
577;SDS011;275;48.492;9.214;2022-07-10T02:57:53;6.20;;;5.60;;
577;SDS011;275;48.492;9.214;2022-07-10T03:00:20;7.13;;;6.43;;
577;SDS011;275;48.492;9.214;2022-07-10T03:02:48;6.77;;;6.17;;
577;SDS011;275;48.492;9.214;2022-07-10T03:05:15;6.90;;;6.20;;
577;SDS011;275;48.492;9.214;2022-07-10T03:07:42;7.40;;;6.70;;
577;SDS011;275;48.492;9.214;2022-07-10T03:10:09;6.23;;;5.63;;
577;SDS011;275;48.492;9.214;2022-07-10T03:12:36;7.00;;;6.30;;
577;SDS011;275;48.492;9.214;2022-07-10T03:15:03;6.90;;;6.30;;
577;SDS011;275;48.492;9.214;2022-07-10T03:17:31;7.70;;;7.10;;
577;SDS011;275;48.492;9.214;2022-07-10T03:19:59;7.17;;;6.57;;
577;SDS011;275;48.492;9.214;2022-07-10T03:22:26;5.33;;;4.83;;
577;SDS011;275;48.492;9.214;2022-07-10T03:24:54;7.27;;;6.77;;
577;SDS011;275;48.492;9.214;2022-07-10T03:27:20;8.83;;;8.23;;
577;SDS011;275;48.492;9.214;2022-07-10T03:29:47;8.53;;;7.77;;
577;SDS011;275;48.492;9.214;2022-07-10T03:32:14;9.60;;;8.90;;
577;SDS011;275;48.492;9.214;2022-07-10T03:34:41;9.53;;;8.70;;
577;SDS011;275;48.492;9.214;2022-07-10T03:37:09;10.07;;;9.27;;
577;SDS011;275;48.492;9.214;2022-07-10T03:39:36;10.40;;;9.50;;
577;SDS011;275;48.492;9.214;2022-07-10T03:42:03;10.70;;;9.80;;
577;SDS011;275;48.492;9.214;2022-07-10T03:44:31;10.83;;;9.93;;
577;SDS011;275;48.492;9.214;2022-07-10T03:46:58;9.90;;;9.10;;
577;SDS011;275;48.492;9.214;2022-07-10T03:49:25;10.57;;;9.73;;
577;SDS011;275;48.492;9.214;2022-07-10T03:51:51;12.20;;;11.17;;
577;SDS011;275;48.492;9.214;2022-07-10T03:54:20;10.70;;;10.00;;
577;SDS011;275;48.492;9.214;2022-07-10T03:56:47;10.57;;;9.67;;
577;SDS011;275;48.492;9.214;2022-07-10T03:59:31;10.47;;;9.77;;
577;SDS011;275;48.492;9.214;2022-07-10T04:01:58;12.63;;;11.60;;
577;SDS011;275;48.492;9.214;2022-07-10T04:04:25;12.83;;;11.80;;
577;SDS011;275;48.492;9.214;2022-07-10T04:06:52;12.63;;;11.50;;
577;SDS011;275;48.492;9.214;2022-07-10T04:09:21;15.00;;;13.90;;
577;SDS011;275;48.492;9.214;2022-07-10T04:11:48;15.90;;;14.70;;
577;SDS011;275;48.492;9.214;2022-07-10T04:14:14;15.77;;;14.47;;
577;SDS011;275;48.492;9.214;2022-07-10T04:16:41;15.10;;;14.00;;
577;SDS011;275;48.492;9.214;2022-07-10T04:19:08;15.80;;;14.53;;
577;SDS011;275;48.492;9.214;2022-07-10T04:21:35;16.67;;;14.00;;
577;SDS011;275;48.492;9.214;2022-07-10T04:24:02;12.23;;;11.03;;
577;SDS011;275;48.492;9.214;2022-07-10T04:26:30;15.60;;;14.40;;
577;SDS011;275;48.492;9.214;2022-07-10T04:28:57;15.67;;;14.37;;
577;SDS011;275;48.492;9.214;2022-07-10T04:31:24;16.20;;;14.90;;
577;SDS011;275;48.492;9.214;2022-07-10T04:33:51;15.40;;;14.20;;
577;SDS011;275;48.492;9.214;2022-07-10T04:36:18;15.80;;;14.50;;
577;SDS011;275;48.492;9.214;2022-07-10T04:38:44;16.30;;;15.00;;
577;SDS011;275;48.492;9.214;2022-07-10T04:41:11;15.30;;;14.10;;
577;SDS011;275;48.492;9.214;2022-07-10T04:43:39;14.63;;;13.37;;
577;SDS011;275;48.492;9.214;2022-07-10T04:46:06;16.90;;;15.50;;
577;SDS011;275;48.492;9.214;2022-07-10T04:48:33;15.50;;;14.20;;
577;SDS011;275;48.492;9.214;2022-07-10T04:51:00;15.57;;;14.33;;
577;SDS011;275;48.492;9.214;2022-07-10T04:53:27;15.33;;;14.00;;
577;SDS011;275;48.492;9.214;2022-07-10T04:55:53;15.83;;;14.53;;
577;SDS011;275;48.492;9.214;2022-07-10T04:58:20;14.23;;;12.93;;
577;SDS011;275;48.492;9.214;2022-07-10T05:00:48;13.87;;;12.57;;
577;SDS011;275;48.492;9.214;2022-07-10T05:03:15;13.63;;;12.53;;
577;SDS011;275;48.492;9.214;2022-07-10T05:05:42;14.30;;;13.20;;
577;SDS011;275;48.492;9.214;2022-07-10T05:08:09;12.80;;;11.70;;
577;SDS011;275;48.492;9.214;2022-07-10T05:10:36;11.30;;;10.40;;
577;SDS011;275;48.492;9.214;2022-07-10T05:13:04;12.03;;;11.03;;
577;SDS011;275;48.492;9.214;2022-07-10T05:15:31;12.47;;;11.47;;
577;SDS011;275;48.492;9.214;2022-07-10T05:18:00;12.13;;;11.13;;
577;SDS011;275;48.492;9.214;2022-07-10T05:20:26;11.37;;;10.40;;
577;SDS011;275;48.492;9.214;2022-07-10T05:22:53;11.90;;;10.80;;
577;SDS011;275;48.492;9.214;2022-07-10T05:25:20;11.50;;;10.60;;
577;SDS011;275;48.492;9.214;2022-07-10T05:27:47;12.83;;;11.83;;
577;SDS011;275;48.492;9.214;2022-07-10T05:30:14;10.90;;;10.00;;
577;SDS011;275;48.492;9.214;2022-07-10T05:32:44;11.10;;;10.10;;
577;SDS011;275;48.492;9.214;2022-07-10T05:35:13;12.07;;;10.77;;
577;SDS011;275;48.492;9.214;2022-07-10T05:37:40;10.87;;;9.90;;
577;SDS011;275;48.492;9.214;2022-07-10T05:40:07;11.80;;;10.70;;
577;SDS011;275;48.492;9.214;2022-07-10T05:42:35;9.90;;;9.10;;
577;SDS011;275;48.492;9.214;2022-07-10T05:45:02;10.23;;;9.33;;
577;SDS011;275;48.492;9.214;2022-07-10T05:47:30;9.37;;;8.47;;
577;SDS011;275;48.492;9.214;2022-07-10T05:49:58;10.70;;;9.80;;
577;SDS011;275;48.492;9.214;2022-07-10T05:52:26;9.10;;;8.30;;
577;SDS011;275;48.492;9.214;2022-07-10T05:54:53;8.90;;;8.03;;
577;SDS011;275;48.492;9.214;2022-07-10T05:57:21;8.93;;;7.90;;
577;SDS011;275;48.492;9.214;2022-07-10T05:59:48;9.03;;;8.13;;
577;SDS011;275;48.492;9.214;2022-07-10T06:02:15;7.70;;;7.00;;
577;SDS011;275;48.492;9.214;2022-07-10T06:04:42;8.40;;;7.60;;
577;SDS011;275;48.492;9.214;2022-07-10T06:07:09;8.70;;;7.80;;
577;SDS011;275;48.492;9.214;2022-07-10T06:09:37;8.37;;;7.23;;
577;SDS011;275;48.492;9.214;2022-07-10T06:12:04;8.53;;;7.20;;
577;SDS011;275;48.492;9.214;2022-07-10T06:14:31;7.30;;;6.60;;
577;SDS011;275;48.492;9.214;2022-07-10T06:16:58;6.73;;;6.00;;
577;SDS011;275;48.492;9.214;2022-07-10T06:19:24;7.03;;;5.60;;
577;SDS011;275;48.492;9.214;2022-07-10T06:21:51;6.60;;;5.00;;
577;SDS011;275;48.492;9.214;2022-07-10T06:24:32;6.00;;;5.20;;
577;SDS011;275;48.492;9.214;2022-07-10T06:27:00;5.43;;;4.70;;
577;SDS011;275;48.492;9.214;2022-07-10T06:29:27;5.03;;;4.50;;
577;SDS011;275;48.492;9.214;2022-07-10T06:31:54;9.10;;;5.17;;
577;SDS011;275;48.492;9.214;2022-07-10T06:34:21;4.57;;;4.17;;
577;SDS011;275;48.492;9.214;2022-07-10T06:36:48;6.70;;;4.80;;
577;SDS011;275;48.492;9.214;2022-07-10T06:39:14;7.60;;;5.23;;
577;SDS011;275;48.492;9.214;2022-07-10T06:41:41;8.63;;;5.80;;
577;SDS011;275;48.492;9.214;2022-07-10T06:44:10;7.53;;;5.67;;
577;SDS011;275;48.492;9.214;2022-07-10T06:46:36;5.50;;;5.00;;
577;SDS011;275;48.492;9.214;2022-07-10T06:49:03;4.63;;;4.20;;
577;SDS011;275;48.492;9.214;2022-07-10T06:51:29;5.30;;;4.37;;
577;SDS011;275;48.492;9.214;2022-07-10T06:53:56;6.43;;;4.30;;
577;SDS011;275;48.492;9.214;2022-07-10T06:56:23;10.50;;;4.17;;
577;SDS011;275;48.492;9.214;2022-07-10T06:58:50;3.73;;;3.43;;
577;SDS011;275;48.492;9.214;2022-07-10T07:01:18;4.07;;;3.10;;
577;SDS011;275;48.492;9.214;2022-07-10T07:03:45;5.20;;;3.53;;
577;SDS011;275;48.492;9.214;2022-07-10T07:06:12;4.27;;;3.50;;
577;SDS011;275;48.492;9.214;2022-07-10T07:08:39;4.80;;;3.53;;
577;SDS011;275;48.492;9.214;2022-07-10T07:11:07;4.10;;;3.20;;
577;SDS011;275;48.492;9.214;2022-07-10T07:13:33;5.63;;;3.23;;
577;SDS011;275;48.492;9.214;2022-07-10T07:16:00;4.20;;;2.60;;
577;SDS011;275;48.492;9.214;2022-07-10T07:18:32;7.17;;;3.40;;
577;SDS011;275;48.492;9.214;2022-07-10T07:21:02;5.23;;;2.80;;
577;SDS011;275;48.492;9.214;2022-07-10T07:23:43;3.80;;;2.50;;
577;SDS011;275;48.492;9.214;2022-07-10T07:26:10;4.87;;;3.00;;
577;SDS011;275;48.492;9.214;2022-07-10T07:28:37;5.27;;;3.20;;
577;SDS011;275;48.492;9.214;2022-07-10T07:31:04;4.40;;;2.77;;
577;SDS011;275;48.492;9.214;2022-07-10T07:33:30;3.83;;;2.67;;
577;SDS011;275;48.492;9.214;2022-07-10T07:35:59;6.60;;;2.70;;
577;SDS011;275;48.492;9.214;2022-07-10T07:38:25;4.37;;;2.10;;
577;SDS011;275;48.492;9.214;2022-07-10T07:40:52;4.23;;;2.77;;
577;SDS011;275;48.492;9.214;2022-07-10T07:43:19;5.17;;;2.50;;
577;SDS011;275;48.492;9.214;2022-07-10T07:45:46;4.23;;;2.67;;
577;SDS011;275;48.492;9.214;2022-07-10T07:48:13;5.63;;;2.80;;
577;SDS011;275;48.492;9.214;2022-07-10T07:50:41;4.73;;;2.80;;
577;SDS011;275;48.492;9.214;2022-07-10T07:53:08;4.23;;;2.80;;
577;SDS011;275;48.492;9.214;2022-07-10T07:55:35;7.07;;;3.23;;
577;SDS011;275;48.492;9.214;2022-07-10T07:58:02;4.50;;;2.70;;
577;SDS011;275;48.492;9.214;2022-07-10T08:00:29;6.40;;;2.43;;
577;SDS011;275;48.492;9.214;2022-07-10T08:02:57;4.60;;;2.50;;
577;SDS011;275;48.492;9.214;2022-07-10T08:05:25;3.20;;;2.10;;
577;SDS011;275;48.492;9.214;2022-07-10T08:07:54;4.43;;;2.60;;
577;SDS011;275;48.492;9.214;2022-07-10T08:10:25;5.23;;;2.40;;
577;SDS011;275;48.492;9.214;2022-07-10T08:12:52;4.27;;;1.90;;
577;SDS011;275;48.492;9.214;2022-07-10T08:15:20;3.97;;;1.90;;
577;SDS011;275;48.492;9.214;2022-07-10T08:17:48;4.97;;;2.77;;
577;SDS011;275;48.492;9.214;2022-07-10T08:20:15;5.73;;;2.20;;
577;SDS011;275;48.492;9.214;2022-07-10T08:22:43;5.63;;;2.43;;
577;SDS011;275;48.492;9.214;2022-07-10T08:25:12;3.80;;;2.40;;
577;SDS011;275;48.492;9.214;2022-07-10T08:27:40;3.60;;;2.37;;
577;SDS011;275;48.492;9.214;2022-07-10T08:30:08;4.30;;;2.43;;
577;SDS011;275;48.492;9.214;2022-07-10T08:32:35;4.10;;;2.33;;
577;SDS011;275;48.492;9.214;2022-07-10T08:35:03;7.77;;;2.90;;
577;SDS011;275;48.492;9.214;2022-07-10T08:37:36;5.80;;;2.70;;
577;SDS011;275;48.492;9.214;2022-07-10T08:40:04;4.60;;;2.00;;
577;SDS011;275;48.492;9.214;2022-07-10T08:42:33;3.27;;;1.90;;
577;SDS011;275;48.492;9.214;2022-07-10T08:45:00;4.93;;;2.60;;
577;SDS011;275;48.492;9.214;2022-07-10T08:47:27;4.00;;;3.00;;
577;SDS011;275;48.492;9.214;2022-07-10T08:49:56;6.30;;;2.63;;
577;SDS011;275;48.492;9.214;2022-07-10T08:52:25;4.43;;;2.30;;
577;SDS011;275;48.492;9.214;2022-07-10T08:54:54;5.93;;;2.53;;
577;SDS011;275;48.492;9.214;2022-07-10T08:57:22;4.00;;;2.40;;
577;SDS011;275;48.492;9.214;2022-07-10T08:59:51;5.47;;;2.97;;
577;SDS011;275;48.492;9.214;2022-07-10T09:02:18;8.27;;;2.40;;
577;SDS011;275;48.492;9.214;2022-07-10T09:04:45;3.93;;;2.20;;
577;SDS011;275;48.492;9.214;2022-07-10T09:07:12;3.90;;;2.00;;
577;SDS011;275;48.492;9.214;2022-07-10T09:09:52;4.30;;;2.40;;
577;SDS011;275;48.492;9.214;2022-07-10T09:12:20;5.10;;;2.77;;
577;SDS011;275;48.492;9.214;2022-07-10T09:14:47;4.20;;;2.43;;
577;SDS011;275;48.492;9.214;2022-07-10T09:17:15;6.30;;;2.60;;
577;SDS011;275;48.492;9.214;2022-07-10T09:19:42;6.50;;;2.47;;
577;SDS011;275;48.492;9.214;2022-07-10T09:22:10;4.00;;;2.53;;
577;SDS011;275;48.492;9.214;2022-07-10T09:24:38;5.10;;;2.70;;
577;SDS011;275;48.492;9.214;2022-07-10T09:27:07;4.87;;;3.10;;
577;SDS011;275;48.492;9.214;2022-07-10T09:29:44;4.93;;;2.43;;
577;SDS011;275;48.492;9.214;2022-07-10T09:32:12;4.17;;;2.70;;
577;SDS011;275;48.492;9.214;2022-07-10T09:34:41;4.23;;;2.30;;
577;SDS011;275;48.492;9.214;2022-07-10T09:37:21;5.80;;;2.97;;
577;SDS011;275;48.492;9.214;2022-07-10T09:39:53;5.70;;;2.57;;
577;SDS011;275;48.492;9.214;2022-07-10T09:42:24;4.87;;;2.00;;
577;SDS011;275;48.492;9.214;2022-07-10T09:44:52;6.40;;;2.27;;
577;SDS011;275;48.492;9.214;2022-07-10T09:47:21;4.67;;;2.60;;
577;SDS011;275;48.492;9.214;2022-07-10T09:49:49;4.63;;;2.63;;
577;SDS011;275;48.492;9.214;2022-07-10T09:52:16;4.33;;;2.30;;
577;SDS011;275;48.492;9.214;2022-07-10T09:54:44;4.50;;;2.47;;
577;SDS011;275;48.492;9.214;2022-07-10T09:57:12;4.40;;;2.50;;
577;SDS011;275;48.492;9.214;2022-07-10T09:59:40;4.73;;;2.27;;
577;SDS011;275;48.492;9.214;2022-07-10T10:02:08;5.20;;;2.73;;
577;SDS011;275;48.492;9.214;2022-07-10T10:04:35;3.50;;;2.20;;
577;SDS011;275;48.492;9.214;2022-07-10T10:07:05;4.63;;;2.10;;
577;SDS011;275;48.492;9.214;2022-07-10T10:09:38;4.13;;;2.00;;
577;SDS011;275;48.492;9.214;2022-07-10T10:12:09;5.30;;;2.20;;
577;SDS011;275;48.492;9.214;2022-07-10T10:14:43;4.10;;;1.90;;
577;SDS011;275;48.492;9.214;2022-07-10T10:17:10;5.60;;;1.97;;
577;SDS011;275;48.492;9.214;2022-07-10T10:19:38;4.50;;;2.07;;
577;SDS011;275;48.492;9.214;2022-07-10T10:22:25;6.30;;;2.07;;
577;SDS011;275;48.492;9.214;2022-07-10T10:24:53;4.40;;;1.97;;
577;SDS011;275;48.492;9.214;2022-07-10T10:27:21;3.37;;;1.80;;
577;SDS011;275;48.492;9.214;2022-07-10T10:29:49;4.43;;;2.13;;
577;SDS011;275;48.492;9.214;2022-07-10T10:32:17;4.47;;;2.23;;
577;SDS011;275;48.492;9.214;2022-07-10T10:34:45;5.80;;;2.20;;
577;SDS011;275;48.492;9.214;2022-07-10T10:37:35;4.50;;;2.00;;
577;SDS011;275;48.492;9.214;2022-07-10T10:40:03;5.90;;;2.30;;
577;SDS011;275;48.492;9.214;2022-07-10T10:42:31;4.30;;;2.20;;
577;SDS011;275;48.492;9.214;2022-07-10T10:48:05;4.33;;;1.97;;
577;SDS011;275;48.492;9.214;2022-07-10T10:50:37;3.60;;;2.00;;
577;SDS011;275;48.492;9.214;2022-07-10T10:53:17;4.17;;;1.70;;
577;SDS011;275;48.492;9.214;2022-07-10T10:58:49;6.83;;;1.70;;
577;SDS011;275;48.492;9.214;2022-07-10T11:01:24;4.50;;;1.90;;
577;SDS011;275;48.492;9.214;2022-07-10T11:06:47;4.23;;;1.70;;
577;SDS011;275;48.492;9.214;2022-07-10T11:09:22;4.07;;;1.50;;
577;SDS011;275;48.492;9.214;2022-07-10T11:12:00;3.37;;;1.47;;
577;SDS011;275;48.492;9.214;2022-07-10T11:14:28;3.47;;;2.03;;
577;SDS011;275;48.492;9.214;2022-07-10T11:16:56;3.40;;;1.87;;
577;SDS011;275;48.492;9.214;2022-07-10T11:19:24;3.37;;;1.80;;
577;SDS011;275;48.492;9.214;2022-07-10T11:21:59;4.77;;;1.90;;
577;SDS011;275;48.492;9.214;2022-07-10T11:24:45;4.10;;;2.00;;
577;SDS011;275;48.492;9.214;2022-07-10T11:30:16;4.33;;;2.03;;
577;SDS011;275;48.492;9.214;2022-07-10T11:32:43;4.07;;;1.87;;
577;SDS011;275;48.492;9.214;2022-07-10T11:35:11;4.37;;;1.83;;
577;SDS011;275;48.492;9.214;2022-07-10T11:37:48;3.57;;;1.40;;
577;SDS011;275;48.492;9.214;2022-07-10T11:40:18;3.00;;;1.53;;
577;SDS011;275;48.492;9.214;2022-07-10T11:42:49;4.50;;;2.23;;
577;SDS011;275;48.492;9.214;2022-07-10T11:45:24;4.30;;;1.80;;
577;SDS011;275;48.492;9.214;2022-07-10T11:47:52;4.90;;;2.03;;
577;SDS011;275;48.492;9.214;2022-07-10T11:50:19;4.30;;;1.97;;
577;SDS011;275;48.492;9.214;2022-07-10T11:52:46;3.63;;;1.70;;
577;SDS011;275;48.492;9.214;2022-07-10T11:55:14;3.47;;;2.00;;
577;SDS011;275;48.492;9.214;2022-07-10T11:57:42;3.70;;;1.63;;
577;SDS011;275;48.492;9.214;2022-07-10T12:00:20;4.70;;;1.97;;
577;SDS011;275;48.492;9.214;2022-07-10T12:02:48;3.40;;;1.50;;
577;SDS011;275;48.492;9.214;2022-07-10T12:05:29;3.70;;;2.00;;
577;SDS011;275;48.492;9.214;2022-07-10T12:07:56;3.67;;;1.90;;
577;SDS011;275;48.492;9.214;2022-07-10T12:10:25;3.17;;;1.80;;
577;SDS011;275;48.492;9.214;2022-07-10T12:12:54;3.90;;;1.80;;
577;SDS011;275;48.492;9.214;2022-07-10T12:15:36;3.93;;;1.93;;
577;SDS011;275;48.492;9.214;2022-07-10T12:18:04;3.30;;;1.73;;
577;SDS011;275;48.492;9.214;2022-07-10T12:20:31;5.73;;;1.93;;
577;SDS011;275;48.492;9.214;2022-07-10T12:22:59;3.67;;;1.83;;
577;SDS011;275;48.492;9.214;2022-07-10T12:25:26;4.30;;;2.00;;
577;SDS011;275;48.492;9.214;2022-07-10T12:27:58;3.97;;;1.83;;
577;SDS011;275;48.492;9.214;2022-07-10T12:30:40;4.40;;;2.00;;
577;SDS011;275;48.492;9.214;2022-07-10T12:33:09;4.70;;;2.03;;
577;SDS011;275;48.492;9.214;2022-07-10T12:35:50;3.97;;;1.93;;
577;SDS011;275;48.492;9.214;2022-07-10T12:38:20;3.50;;;1.50;;
577;SDS011;275;48.492;9.214;2022-07-10T12:40:48;4.03;;;1.80;;
577;SDS011;275;48.492;9.214;2022-07-10T12:43:26;3.80;;;1.87;;
577;SDS011;275;48.492;9.214;2022-07-10T12:46:13;3.80;;;2.00;;
577;SDS011;275;48.492;9.214;2022-07-10T12:48:41;3.40;;;1.70;;
577;SDS011;275;48.492;9.214;2022-07-10T12:53:55;7.30;;;2.07;;
577;SDS011;275;48.492;9.214;2022-07-10T12:56:32;4.23;;;2.00;;
577;SDS011;275;48.492;9.214;2022-07-10T12:59:02;4.37;;;1.87;;
577;SDS011;275;48.492;9.214;2022-07-10T13:01:41;3.20;;;1.83;;
577;SDS011;275;48.492;9.214;2022-07-10T13:04:10;3.20;;;2.10;;
577;SDS011;275;48.492;9.214;2022-07-10T13:06:38;4.77;;;2.17;;
577;SDS011;275;48.492;9.214;2022-07-10T13:11:53;5.13;;;2.10;;
577;SDS011;275;48.492;9.214;2022-07-10T13:14:22;5.50;;;2.20;;
577;SDS011;275;48.492;9.214;2022-07-10T13:16:49;4.63;;;2.40;;
577;SDS011;275;48.492;9.214;2022-07-10T13:19:16;3.10;;;1.50;;
577;SDS011;275;48.492;9.214;2022-07-10T13:21:44;3.97;;;1.77;;
577;SDS011;275;48.492;9.214;2022-07-10T13:24:11;3.00;;;1.60;;
577;SDS011;275;48.492;9.214;2022-07-10T13:26:37;5.87;;;2.00;;
577;SDS011;275;48.492;9.214;2022-07-10T13:29:04;3.30;;;1.60;;
577;SDS011;275;48.492;9.214;2022-07-10T13:31:33;3.73;;;1.67;;
577;SDS011;275;48.492;9.214;2022-07-10T13:34:00;3.50;;;1.53;;
577;SDS011;275;48.492;9.214;2022-07-10T13:36:27;5.30;;;1.73;;
577;SDS011;275;48.492;9.214;2022-07-10T13:38:53;4.23;;;1.67;;
577;SDS011;275;48.492;9.214;2022-07-10T13:41:20;2.80;;;1.50;;
577;SDS011;275;48.492;9.214;2022-07-10T13:43:47;6.57;;;2.00;;
577;SDS011;275;48.492;9.214;2022-07-10T13:46:14;3.33;;;1.60;;
577;SDS011;275;48.492;9.214;2022-07-10T13:48:42;4.80;;;1.60;;
577;SDS011;275;48.492;9.214;2022-07-10T13:51:09;4.47;;;1.50;;
577;SDS011;275;48.492;9.214;2022-07-10T13:53:36;3.03;;;1.30;;
577;SDS011;275;48.492;9.214;2022-07-10T13:56:04;4.10;;;1.77;;
577;SDS011;275;48.492;9.214;2022-07-10T13:58:32;4.13;;;1.63;;
577;SDS011;275;48.492;9.214;2022-07-10T14:00:58;4.87;;;1.60;;
577;SDS011;275;48.492;9.214;2022-07-10T14:03:25;4.37;;;1.60;;
577;SDS011;275;48.492;9.214;2022-07-10T14:05:53;4.73;;;1.90;;
577;SDS011;275;48.492;9.214;2022-07-10T14:08:20;2.97;;;1.13;;
577;SDS011;275;48.492;9.214;2022-07-10T14:10:47;4.03;;;1.40;;
577;SDS011;275;48.492;9.214;2022-07-10T14:13:14;3.77;;;1.67;;
577;SDS011;275;48.492;9.214;2022-07-10T14:15:41;2.53;;;1.13;;
577;SDS011;275;48.492;9.214;2022-07-10T14:18:10;5.60;;;1.23;;
577;SDS011;275;48.492;9.214;2022-07-10T14:20:37;3.93;;;1.53;;
577;SDS011;275;48.492;9.214;2022-07-10T14:23:23;3.90;;;1.10;;
577;SDS011;275;48.492;9.214;2022-07-10T14:25:49;2.97;;;1.27;;
577;SDS011;275;48.492;9.214;2022-07-10T14:28:17;3.63;;;1.30;;
577;SDS011;275;48.492;9.214;2022-07-10T14:30:44;3.50;;;1.30;;
577;SDS011;275;48.492;9.214;2022-07-10T14:33:11;4.37;;;1.80;;
577;SDS011;275;48.492;9.214;2022-07-10T14:35:38;3.67;;;1.30;;
577;SDS011;275;48.492;9.214;2022-07-10T14:38:05;3.97;;;1.43;;
577;SDS011;275;48.492;9.214;2022-07-10T14:40:33;3.33;;;1.20;;
577;SDS011;275;48.492;9.214;2022-07-10T14:43:00;3.00;;;1.00;;
577;SDS011;275;48.492;9.214;2022-07-10T14:45:27;3.60;;;1.23;;
577;SDS011;275;48.492;9.214;2022-07-10T14:47:54;3.63;;;1.10;;
577;SDS011;275;48.492;9.214;2022-07-10T14:50:21;4.07;;;1.40;;
577;SDS011;275;48.492;9.214;2022-07-10T14:52:48;3.20;;;1.27;;
577;SDS011;275;48.492;9.214;2022-07-10T14:55:15;2.80;;;0.87;;
577;SDS011;275;48.492;9.214;2022-07-10T14:57:44;3.20;;;1.07;;
577;SDS011;275;48.492;9.214;2022-07-10T15:00:13;2.70;;;1.30;;
577;SDS011;275;48.492;9.214;2022-07-10T15:02:40;3.73;;;1.30;;
577;SDS011;275;48.492;9.214;2022-07-10T15:05:07;4.40;;;1.30;;
577;SDS011;275;48.492;9.214;2022-07-10T15:07:34;3.83;;;1.00;;
577;SDS011;275;48.492;9.214;2022-07-10T15:10:01;5.63;;;1.33;;
577;SDS011;275;48.492;9.214;2022-07-10T15:12:28;4.00;;;1.60;;
577;SDS011;275;48.492;9.214;2022-07-10T15:14:58;4.00;;;1.10;;
577;SDS011;275;48.492;9.214;2022-07-10T15:17:25;3.20;;;1.00;;
577;SDS011;275;48.492;9.214;2022-07-10T15:19:51;3.60;;;1.30;;
577;SDS011;275;48.492;9.214;2022-07-10T15:22:18;3.50;;;1.10;;
577;SDS011;275;48.492;9.214;2022-07-10T15:24:45;3.13;;;1.27;;
577;SDS011;275;48.492;9.214;2022-07-10T15:27:14;3.87;;;1.33;;
577;SDS011;275;48.492;9.214;2022-07-10T15:29:41;3.80;;;1.87;;
577;SDS011;275;48.492;9.214;2022-07-10T15:32:09;4.20;;;1.37;;
577;SDS011;275;48.492;9.214;2022-07-10T15:34:37;3.87;;;1.67;;
577;SDS011;275;48.492;9.214;2022-07-10T15:37:04;3.40;;;1.27;;
577;SDS011;275;48.492;9.214;2022-07-10T15:39:31;3.63;;;1.50;;
577;SDS011;275;48.492;9.214;2022-07-10T15:42:06;4.60;;;1.50;;
577;SDS011;275;48.492;9.214;2022-07-10T15:44:33;4.07;;;1.40;;
577;SDS011;275;48.492;9.214;2022-07-10T15:47:00;3.20;;;1.30;;
577;SDS011;275;48.492;9.214;2022-07-10T15:49:28;5.00;;;1.70;;
577;SDS011;275;48.492;9.214;2022-07-10T15:51:55;4.70;;;1.43;;
577;SDS011;275;48.492;9.214;2022-07-10T15:54:24;3.33;;;1.20;;
577;SDS011;275;48.492;9.214;2022-07-10T15:56:51;3.10;;;1.33;;
577;SDS011;275;48.492;9.214;2022-07-10T15:59:18;4.03;;;1.43;;
577;SDS011;275;48.492;9.214;2022-07-10T16:01:48;3.67;;;1.10;;
577;SDS011;275;48.492;9.214;2022-07-10T16:04:16;4.03;;;1.10;;
577;SDS011;275;48.492;9.214;2022-07-10T16:06:44;3.13;;;0.93;;